createdAt,value
2022-12-11T00:01:46.600Z,65.73
2022-12-11T00:04:16.662Z,73.73
2022-12-11T00:06:46.333Z,79.23
2022-12-11T00:09:18.335Z,71.80
2022-12-11T00:11:50.020Z,82.50
2022-12-11T00:14:19.581Z,82.83
2022-12-11T00:16:50.712Z,86.90
2022-12-11T00:19:20.002Z,84.23
2022-12-11T00:21:49.343Z,80.40
2022-12-11T00:24:20.606Z,79.07
2022-12-11T00:26:49.903Z,83.53
2022-12-11T00:29:20.081Z,84.57
2022-12-11T00:31:52.490Z,78.40
2022-12-11T00:34:21.662Z,86.43
2022-12-11T00:36:51.240Z,86.07
2022-12-11T00:39:22.426Z,78.93
2022-12-11T00:41:51.248Z,76.80
2022-12-11T00:44:21.030Z,76.37
2022-12-11T00:46:50.698Z,27.57
2022-12-11T00:49:19.976Z,81.90
2022-12-11T00:51:49.386Z,69.57
2022-12-11T00:54:18.535Z,76.40
2022-12-11T00:56:51.518Z,72.10
2022-12-11T00:59:22.578Z,75.83
2022-12-11T01:01:54.498Z,76.40
2022-12-11T01:04:24.567Z,73.63
2022-12-11T01:06:54.513Z,80.83
2022-12-11T01:09:41.209Z,67.87
2022-12-11T01:12:11.444Z,83.07
2022-12-11T01:14:40.521Z,73.37
2022-12-11T01:17:09.569Z,74.40
2022-12-11T01:19:39.460Z,74.37
2022-12-11T01:22:09.247Z,76.80
2022-12-11T01:24:38.706Z,71.23
2022-12-11T01:27:07.850Z,75.70
2022-12-11T01:29:41.035Z,76.57
2022-12-11T01:32:10.114Z,89.30
2022-12-11T01:34:39.932Z,76.13
2022-12-11T01:37:11.746Z,74.67
2022-12-11T01:39:41.009Z,76.53
2022-12-11T01:42:17.974Z,71.27
2022-12-11T01:45:28.043Z,72.07
2022-12-11T01:48:02.627Z,79.73
2022-12-11T01:50:34.471Z,70.43
2022-12-11T01:53:04.061Z,88.43
2022-12-11T01:55:34.433Z,70.57
2022-12-11T01:58:05.280Z,76.47
2022-12-11T02:00:36.289Z,75.90
2022-12-11T02:03:05.813Z,69.87
2022-12-11T02:05:36.931Z,68.07
2022-12-11T02:08:08.060Z,65.17
2022-12-11T02:10:51.256Z,67.90
2022-12-11T02:13:25.574Z,78.17
2022-12-11T02:16:03.105Z,65.70
2022-12-11T02:18:36.528Z,77.13
2022-12-11T02:21:13.002Z,74.67
2022-12-11T02:24:09.634Z,75.23
2022-12-11T02:27:00.145Z,86.97
2022-12-11T02:29:37.065Z,79.20
2022-12-11T02:32:13.061Z,85.63
2022-12-11T02:34:45.625Z,73.67
2022-12-11T02:37:20.144Z,80.00
2022-12-11T02:39:54.079Z,82.27
2022-12-11T02:42:24.221Z,82.57
2022-12-11T02:44:56.930Z,73.47
2022-12-11T02:47:28.884Z,64.47
2022-12-11T02:49:58.552Z,91.43
2022-12-11T02:52:33.079Z,78.77
2022-12-11T02:55:03.620Z,79.23
2022-12-11T02:57:43.347Z,77.53
2022-12-11T03:00:17.424Z,73.97
2022-12-11T03:02:48.136Z,75.00
2022-12-11T03:05:17.539Z,77.13
2022-12-11T03:07:47.127Z,71.10
2022-12-11T03:10:19.261Z,74.93
2022-12-11T03:12:53.584Z,76.63
2022-12-11T03:15:25.986Z,69.93
2022-12-11T03:18:03.215Z,79.17
2022-12-11T03:20:39.889Z,76.07
2022-12-11T03:23:19.673Z,70.77
2022-12-11T03:25:55.214Z,84.83
2022-12-11T03:28:31.274Z,76.27
2022-12-11T03:31:04.626Z,73.57
2022-12-11T03:33:38.590Z,57.90
2022-12-11T03:36:09.989Z,67.70
2022-12-11T03:38:43.037Z,71.67
2022-12-11T03:41:21.755Z,61.80
2022-12-11T03:43:53.712Z,70.97
2022-12-11T03:46:29.654Z,64.10
2022-12-11T03:48:59.007Z,60.23
2022-12-11T03:51:28.313Z,56.50
2022-12-11T03:53:58.121Z,71.77
2022-12-11T03:56:27.879Z,62.23
2022-12-11T03:58:57.233Z,68.70
2022-12-11T04:01:29.017Z,69.30
2022-12-11T04:03:58.478Z,68.53
2022-12-11T04:06:27.788Z,63.53
2022-12-11T04:08:57.665Z,69.33
2022-12-11T04:11:36.705Z,69.10
2022-12-11T04:14:26.132Z,60.03
2022-12-11T04:16:57.981Z,59.37
2022-12-11T04:19:45.135Z,66.17
2022-12-11T04:22:32.402Z,62.10
2022-12-11T04:25:02.153Z,63.50
2022-12-11T04:27:49.037Z,68.70
2022-12-11T04:30:21.335Z,59.73
2022-12-11T04:32:56.570Z,71.87
2022-12-11T04:35:26.178Z,66.53
2022-12-11T04:37:56.046Z,67.93
2022-12-11T04:40:25.227Z,63.20
2022-12-11T04:42:56.462Z,63.73
2022-12-11T04:45:25.784Z,64.93
2022-12-11T04:47:59.126Z,56.47
2022-12-11T04:50:28.108Z,56.57
2022-12-11T04:52:57.516Z,57.93
2022-12-11T04:55:26.663Z,47.27
2022-12-11T04:57:55.564Z,54.60
2022-12-11T05:00:27.615Z,51.93
2022-12-11T05:02:59.450Z,57.50
2022-12-11T05:05:29.883Z,52.97
2022-12-11T05:07:59.151Z,48.70
2022-12-11T05:10:28.928Z,57.80
2022-12-11T05:13:02.555Z,56.83
2022-12-11T05:15:31.991Z,64.67
2022-12-11T05:18:02.090Z,60.50
2022-12-11T05:20:32.040Z,66.50
2022-12-11T05:23:01.383Z,59.60
2022-12-11T05:25:32.927Z,63.23
2022-12-11T05:28:04.829Z,51.30
2022-12-11T05:30:37.361Z,57.43
2022-12-11T05:33:10.334Z,66.10
2022-12-11T05:35:40.079Z,50.03
2022-12-11T05:38:09.720Z,56.90
2022-12-11T05:40:39.223Z,56.73
2022-12-11T05:43:09.202Z,57.37
2022-12-11T05:45:39.795Z,51.40
2022-12-11T05:48:10.470Z,50.60
2022-12-11T05:50:40.295Z,51.17
2022-12-11T05:53:10.053Z,56.93
2022-12-11T05:55:39.486Z,55.30
2022-12-11T05:58:09.895Z,45.43
2022-12-11T06:00:39.862Z,54.70
2022-12-11T06:03:12.824Z,55.20
2022-12-11T06:05:44.502Z,52.90
2022-12-11T06:08:13.952Z,50.63
2022-12-11T06:10:47.541Z,58.57
2022-12-11T06:13:16.944Z,52.93
2022-12-11T06:15:46.551Z,57.70
2022-12-11T06:18:17.303Z,52.27
2022-12-11T06:20:47.277Z,51.77
2022-12-11T06:23:16.481Z,52.90
2022-12-11T06:25:45.589Z,49.70
2022-12-11T06:28:14.715Z,52.87
2022-12-11T06:30:44.921Z,53.83
2022-12-11T06:33:14.927Z,54.57
2022-12-11T06:35:47.090Z,51.10
2022-12-11T06:38:17.879Z,56.83
2022-12-11T06:40:47.080Z,53.97
2022-12-11T06:43:16.523Z,55.67
2022-12-11T06:45:46.245Z,55.23
2022-12-11T06:48:15.708Z,50.97
2022-12-11T06:50:49.574Z,49.27
2022-12-11T06:53:19.880Z,45.03
2022-12-11T06:55:49.479Z,54.50
2022-12-11T06:58:18.684Z,54.30
2022-12-11T07:00:48.002Z,46.17
2022-12-11T07:03:18.474Z,52.60
2022-12-11T07:05:49.333Z,61.17
2022-12-11T07:08:18.874Z,39.37
2022-12-11T07:10:48.270Z,46.17
2022-12-11T07:13:17.454Z,49.87
2022-12-11T07:15:46.987Z,42.80
2022-12-11T07:18:16.259Z,44.80
2022-12-11T07:20:46.616Z,44.00
2022-12-11T07:23:20.537Z,51.33
2022-12-11T07:25:49.942Z,43.70
2022-12-11T07:28:19.207Z,54.90
2022-12-11T07:30:49.207Z,40.77
2022-12-11T07:33:18.534Z,43.33
2022-12-11T07:35:47.550Z,45.07
2022-12-11T07:38:18.527Z,45.03
2022-12-11T07:40:47.739Z,42.87
2022-12-11T07:43:17.142Z,45.70
2022-12-11T07:45:46.653Z,41.23
2022-12-11T07:48:15.609Z,43.90
2022-12-11T07:50:44.745Z,43.10
2022-12-11T07:53:13.925Z,36.83
2022-12-11T07:55:45.816Z,42.03
2022-12-11T07:58:17.324Z,51.60
2022-12-11T08:00:48.431Z,41.97
2022-12-11T08:03:17.986Z,43.07
2022-12-11T08:05:54.144Z,42.77
2022-12-11T08:08:23.207Z,43.40
2022-12-11T08:10:54.951Z,44.23
2022-12-11T08:13:24.624Z,39.20
2022-12-11T08:15:54.917Z,36.90
2022-12-11T08:18:24.747Z,41.07
2022-12-11T08:20:55.037Z,33.43
2022-12-11T08:23:24.632Z,39.83
2022-12-11T08:25:55.635Z,44.03
2022-12-11T08:28:27.016Z,40.67
2022-12-11T08:30:57.439Z,46.73
2022-12-11T08:33:26.892Z,40.10
2022-12-11T08:35:56.326Z,34.17
2022-12-11T08:38:25.876Z,38.87
2022-12-11T08:40:56.506Z,33.77
2022-12-11T08:43:27.545Z,33.23
2022-12-11T08:45:57.109Z,41.23
2022-12-11T08:48:26.549Z,38.47
2022-12-11T08:50:55.888Z,36.50
2022-12-11T08:53:25.159Z,35.70
2022-12-11T08:55:55.001Z,32.93
2022-12-11T08:58:25.214Z,29.00
2022-12-11T09:00:54.795Z,33.70
2022-12-11T09:03:24.484Z,34.53
2022-12-11T09:05:59.820Z,36.57
2022-12-11T09:08:29.569Z,30.93
2022-12-11T09:10:59.715Z,36.10
2022-12-11T09:13:30.406Z,32.43
2022-12-11T09:15:59.771Z,29.93
2022-12-11T09:18:29.449Z,35.63
2022-12-11T09:21:03.004Z,36.23
2022-12-11T09:23:34.677Z,35.53
2022-12-11T09:26:06.667Z,26.23
2022-12-11T09:28:39.041Z,31.60
2022-12-11T09:31:12.660Z,40.73
2022-12-11T09:33:42.495Z,34.43
2022-12-11T09:36:12.492Z,26.93
2022-12-11T09:38:43.891Z,35.43
2022-12-11T09:41:28.130Z,32.93
2022-12-11T09:44:02.819Z,33.63
2022-12-11T09:46:34.589Z,31.93
2022-12-11T09:49:05.006Z,32.37
2022-12-11T09:51:42.645Z,32.60
2022-12-11T09:54:15.615Z,33.83
2022-12-11T09:56:52.825Z,23.93
2022-12-11T09:59:26.889Z,31.30
2022-12-11T10:02:03.102Z,27.27
2022-12-11T10:04:50.719Z,29.47
2022-12-11T10:07:29.581Z,27.63
2022-12-11T10:10:02.903Z,24.53
2022-12-11T10:12:44.472Z,32.57
2022-12-11T10:15:28.456Z,35.03
2022-12-11T10:18:04.954Z,26.03
2022-12-11T10:20:37.901Z,38.27
2022-12-11T10:23:10.210Z,32.00
2022-12-11T10:25:43.409Z,32.00
2022-12-11T10:28:15.284Z,35.60
2022-12-11T10:30:52.059Z,32.70
2022-12-11T10:33:24.667Z,37.23
2022-12-11T10:36:00.791Z,30.27
2022-12-11T10:38:33.257Z,40.97
2022-12-11T10:41:04.281Z,36.00
2022-12-11T10:43:40.258Z,32.00
2022-12-11T10:46:18.987Z,28.40
2022-12-11T10:48:49.155Z,29.80
2022-12-11T10:51:18.608Z,28.60
2022-12-11T10:53:52.867Z,37.03
2022-12-11T10:56:34.783Z,30.40
2022-12-11T10:59:04.734Z,39.87
2022-12-11T11:01:35.898Z,32.50
2022-12-11T11:04:08.430Z,31.33
2022-12-11T11:06:37.964Z,14.43
2022-12-11T11:09:07.195Z,21.47
2022-12-11T11:11:41.120Z,18.53
2022-12-11T11:14:16.781Z,24.40
2022-12-11T11:16:50.500Z,14.07
2022-12-11T11:19:23.073Z,18.47
2022-12-11T11:21:54.772Z,24.80
2022-12-11T11:24:30.699Z,18.63
2022-12-11T11:27:18.805Z,15.83
2022-12-11T11:29:52.919Z,25.53
2022-12-11T11:32:31.527Z,20.30
2022-12-11T11:35:22.810Z,25.83
2022-12-11T11:38:01.859Z,24.50
2022-12-11T11:40:32.470Z,24.20
2022-12-11T11:43:07.693Z,23.70
2022-12-11T11:45:40.896Z,28.57
2022-12-11T11:48:31.565Z,24.37
2022-12-11T11:51:00.896Z,26.27
2022-12-11T11:53:37.980Z,22.70
2022-12-11T11:56:12.388Z,28.10
2022-12-11T11:58:47.630Z,23.30
2022-12-11T12:01:18.167Z,23.30
2022-12-11T12:03:51.164Z,30.27
2022-12-11T12:06:30.398Z,23.10
2022-12-11T12:09:13.518Z,31.43
2022-12-11T12:11:46.103Z,24.30
2022-12-11T12:14:51.179Z,20.93
2022-12-11T12:17:16.747Z,24.97
2022-12-11T12:19:51.490Z,28.97
2022-12-11T12:22:38.168Z,22.17
2022-12-11T12:25:18.739Z,18.60
2022-12-11T12:27:56.675Z,22.93
2022-12-11T12:30:29.393Z,25.00
2022-12-11T12:33:12.587Z,26.00
2022-12-11T12:35:55.271Z,18.97
2022-12-11T12:38:36.197Z,23.33
2022-12-11T12:41:17.488Z,22.30
2022-12-11T12:44:03.440Z,16.60
2022-12-11T12:46:45.895Z,21.07
2022-12-11T12:49:18.417Z,22.13
2022-12-11T12:51:50.519Z,18.40
2022-12-11T12:54:23.870Z,22.43
2022-12-11T12:56:53.819Z,21.03
2022-12-11T12:59:25.111Z,16.27
2022-12-11T13:01:58.383Z,20.73
2022-12-11T13:04:56.087Z,22.10
2022-12-11T13:07:31.831Z,21.90
2022-12-11T13:10:07.745Z,19.17
2022-12-11T13:12:45.194Z,17.43
2022-12-11T13:15:29.923Z,17.70
2022-12-11T13:18:00.378Z,17.07
2022-12-11T13:20:31.221Z,18.07
2022-12-11T13:23:27.706Z,14.17
2022-12-11T13:26:00.666Z,14.13
2022-12-11T13:28:35.550Z,18.37
2022-12-11T13:31:28.027Z,14.80
2022-12-11T13:34:00.391Z,17.70
2022-12-11T13:36:32.889Z,15.43
2022-12-11T13:39:08.636Z,12.43
2022-12-11T13:41:40.752Z,17.03
2022-12-11T13:44:17.675Z,19.83
2022-12-11T13:46:47.293Z,24.73
2022-12-11T13:49:24.625Z,14.10
2022-12-11T13:51:55.257Z,18.77
2022-12-11T13:54:26.606Z,15.13
2022-12-11T13:57:02.512Z,16.43
2022-12-11T13:59:34.670Z,13.53
2022-12-11T14:02:11.800Z,19.40
2022-12-11T14:04:41.544Z,22.87
2022-12-11T14:07:12.701Z,15.43
2022-12-11T14:09:46.036Z,11.87
2022-12-11T14:12:23.125Z,15.07
2022-12-11T14:14:54.087Z,15.97
2022-12-11T14:17:27.896Z,17.97
2022-12-11T14:20:02.462Z,28.63
2022-12-11T14:22:32.347Z,9.37
2022-12-11T14:25:19.590Z,19.23
2022-12-11T14:27:50.135Z,18.10
2022-12-11T14:30:26.873Z,16.80
2022-12-11T14:32:59.727Z,16.73
2022-12-11T14:35:38.584Z,21.13
2022-12-11T14:38:16.457Z,11.97
2022-12-11T14:40:52.274Z,22.93
2022-12-11T14:43:24.553Z,18.80
2022-12-11T14:45:59.665Z,16.20
2022-12-11T14:48:35.052Z,19.20
2022-12-11T14:51:09.478Z,15.03
2022-12-11T14:53:43.761Z,17.40
2022-12-11T14:56:19.993Z,10.80
2022-12-11T14:58:54.658Z,13.37
2022-12-11T15:01:27.359Z,9.93
2022-12-11T15:04:08.722Z,8.50
2022-12-11T15:06:46.705Z,10.43
2022-12-11T15:09:20.905Z,7.23
2022-12-11T15:11:53.541Z,18.10
2022-12-11T15:14:26.674Z,11.27
2022-12-11T15:16:59.290Z,8.97
2022-12-11T15:19:33.213Z,11.20
2022-12-11T15:22:06.275Z,16.90
2022-12-11T15:24:40.834Z,17.30
2022-12-11T15:27:19.455Z,14.40
2022-12-11T15:29:50.279Z,15.53
2022-12-11T15:32:21.045Z,15.00
2022-12-11T15:34:53.033Z,15.03
2022-12-11T15:37:26.219Z,15.17
2022-12-11T15:39:59.325Z,14.70
2022-12-11T15:42:32.592Z,15.37
2022-12-11T15:45:03.298Z,13.30
2022-12-11T15:47:33.862Z,7.47
2022-12-11T15:50:04.719Z,15.20
2022-12-11T15:52:35.268Z,12.43
2022-12-11T15:55:05.293Z,16.97
2022-12-11T15:57:37.413Z,22.00
2022-12-11T16:00:08.858Z,14.73
2022-12-11T16:02:38.544Z,12.10
2022-12-11T16:05:10.472Z,16.70
2022-12-11T16:07:41.149Z,19.27
2022-12-11T16:10:14.957Z,13.57
2022-12-11T16:12:47.744Z,21.60
2022-12-11T16:15:23.529Z,10.63
2022-12-11T16:18:01.884Z,17.90
2022-12-11T16:20:32.951Z,16.63
2022-12-11T16:23:02.438Z,6.87
2022-12-11T16:25:32.119Z,15.70
2022-12-11T16:28:04.246Z,14.77
2022-12-11T16:30:34.427Z,11.70
2022-12-11T16:33:10.294Z,17.80
2022-12-11T16:35:42.030Z,17.77
2022-12-11T16:41:03.482Z,13.13
2022-12-11T16:43:34.912Z,17.43
2022-12-11T16:46:04.887Z,18.10
2022-12-11T16:48:34.438Z,12.13
2022-12-11T16:51:07.107Z,11.87
2022-12-11T16:53:39.322Z,15.47
2022-12-11T16:56:09.396Z,12.97
2022-12-11T16:58:40.992Z,12.37
2022-12-11T17:01:14.251Z,17.33
2022-12-11T17:03:44.579Z,11.80
2022-12-11T17:06:15.866Z,15.23
2022-12-11T17:08:46.791Z,15.30
2022-12-11T17:11:18.414Z,17.10
2022-12-11T17:13:50.511Z,9.20
2022-12-11T17:16:20.411Z,15.53
2022-12-11T17:18:49.808Z,10.30
2022-12-11T17:21:19.849Z,19.47
2022-12-11T17:23:49.466Z,16.30
2022-12-11T17:26:19.262Z,7.70
2022-12-11T17:28:50.265Z,8.63
2022-12-11T17:31:21.868Z,21.10
2022-12-11T17:33:51.914Z,17.07
2022-12-11T17:36:23.246Z,20.63
2022-12-11T17:38:53.041Z,17.90
2022-12-11T17:41:26.516Z,19.97
2022-12-11T17:43:58.844Z,20.43
2022-12-11T17:46:29.113Z,16.13
2022-12-11T17:49:00.712Z,14.27
2022-12-11T17:51:32.964Z,19.97
2022-12-11T17:54:02.759Z,17.67
2022-12-11T17:56:34.492Z,19.07
2022-12-11T17:59:27.712Z,15.87
2022-12-11T18:01:58.291Z,12.03
2022-12-11T18:04:28.400Z,20.23
2022-12-11T18:06:58.223Z,17.07
2022-12-11T18:09:29.190Z,18.03
2022-12-11T18:11:59.392Z,20.53
2022-12-11T18:14:31.945Z,16.13
2022-12-11T18:17:01.475Z,15.13
2022-12-11T18:19:31.454Z,17.87
2022-12-11T18:22:01.502Z,17.97
2022-12-11T18:24:32.591Z,20.10
2022-12-11T18:27:03.154Z,19.27
2022-12-11T18:29:35.909Z,23.07
2022-12-11T18:32:05.840Z,14.13
2022-12-11T18:34:37.935Z,21.93
2022-12-11T18:37:08.950Z,16.93
2022-12-11T18:39:38.794Z,18.43
2022-12-11T18:42:32.476Z,23.83
2022-12-11T18:45:03.432Z,11.33
2022-12-11T18:47:33.432Z,19.40
2022-12-11T18:50:07.630Z,22.53
2022-12-11T18:52:39.156Z,22.13
2022-12-11T18:55:09.799Z,18.47
2022-12-11T18:57:40.048Z,22.37
2022-12-11T19:00:13.415Z,18.40
2022-12-11T19:02:43.011Z,27.77
2022-12-11T19:05:13.778Z,25.93
2022-12-11T19:07:46.022Z,24.90
2022-12-11T19:10:16.344Z,28.97
2022-12-11T19:12:46.632Z,20.00
2022-12-11T19:15:23.591Z,18.50
2022-12-11T19:17:54.229Z,30.13
2022-12-11T19:20:48.185Z,17.00
2022-12-11T19:23:13.423Z,17.87
2022-12-11T19:25:46.788Z,25.57
2022-12-11T19:28:17.338Z,16.00
2022-12-11T19:30:51.299Z,25.50
2022-12-11T19:33:23.549Z,24.63
2022-12-11T19:36:02.311Z,24.93
2022-12-11T19:38:31.953Z,22.63
2022-12-11T19:41:01.596Z,22.93
2022-12-11T19:43:31.599Z,22.57
2022-12-11T19:46:06.166Z,29.00
2022-12-11T19:48:41.788Z,27.97
2022-12-11T19:51:27.047Z,30.30
2022-12-11T19:54:00.362Z,14.00
2022-12-11T19:56:32.138Z,21.17
2022-12-11T19:59:02.519Z,13.00
2022-12-11T20:01:34.800Z,21.67
2022-12-11T20:04:07.425Z,19.73
2022-12-11T20:06:42.280Z,25.47
2022-12-11T20:09:13.168Z,24.10
2022-12-11T20:11:44.391Z,27.23
2022-12-11T20:14:33.297Z,16.93
2022-12-11T20:17:14.457Z,25.33
2022-12-11T20:19:44.960Z,20.70
2022-12-11T20:22:14.754Z,14.67
2022-12-11T20:24:45.052Z,24.50
2022-12-11T20:27:16.250Z,30.63
2022-12-11T20:29:48.542Z,25.33
2022-12-11T20:32:19.942Z,19.07
2022-12-11T20:34:49.962Z,31.50
2022-12-11T20:37:35.386Z,28.83
2022-12-11T20:40:09.263Z,20.77
2022-12-11T20:42:39.897Z,18.97
2022-12-11T20:45:11.238Z,28.47
2022-12-11T20:47:44.195Z,22.17
2022-12-11T20:50:15.260Z,26.80
2022-12-11T20:52:44.818Z,27.63
2022-12-11T20:55:19.076Z,32.63
2022-12-11T20:57:49.137Z,22.07
2022-12-11T21:00:19.938Z,24.67
2022-12-11T21:02:54.084Z,25.30
2022-12-11T21:05:23.687Z,29.87
2022-12-11T21:07:56.977Z,20.27
2022-12-11T21:10:33.523Z,17.83
2022-12-11T21:13:08.842Z,28.10
2022-12-11T21:15:38.556Z,12.47
2022-12-11T21:18:10.573Z,33.07
2022-12-11T21:20:39.939Z,29.87
2022-12-11T21:23:09.413Z,28.17
2022-12-11T21:25:42.152Z,29.37
2022-12-11T21:28:12.073Z,20.97
2022-12-11T21:30:41.727Z,25.70
2022-12-11T21:33:12.205Z,24.77
2022-12-11T21:35:42.706Z,19.47
2022-12-11T21:38:13.152Z,24.40
2022-12-11T21:40:46.783Z,23.83
2022-12-11T21:43:17.569Z,28.70
2022-12-11T21:46:03.120Z,28.93
2022-12-11T21:48:34.829Z,35.57
2022-12-11T21:51:12.807Z,19.73
2022-12-11T21:53:48.936Z,21.93
2022-12-11T21:56:22.387Z,26.67
2022-12-11T21:58:53.147Z,27.27
2022-12-11T22:01:34.909Z,35.07
2022-12-11T22:04:13.051Z,26.80
2022-12-11T22:06:47.513Z,30.07
2022-12-11T22:09:18.459Z,30.50
2022-12-11T22:11:55.057Z,29.53
2022-12-11T22:14:28.019Z,32.67
2022-12-11T22:16:57.724Z,32.77
2022-12-11T22:19:32.661Z,33.87
2022-12-11T22:22:02.909Z,25.33
2022-12-11T22:24:32.398Z,31.40
2022-12-11T22:27:02.345Z,25.63
2022-12-11T22:29:31.589Z,30.43
2022-12-11T22:32:01.852Z,25.67
2022-12-11T22:34:33.091Z,22.90
2022-12-11T22:37:02.402Z,34.97
2022-12-11T22:39:35.818Z,31.67
2022-12-11T22:42:06.343Z,30.80
2022-12-11T22:44:36.972Z,31.17
2022-12-11T22:47:06.825Z,23.70
2022-12-11T22:49:38.766Z,30.30
2022-12-11T22:52:08.892Z,30.33
2022-12-11T22:54:43.006Z,31.07
2022-12-11T22:57:14.770Z,27.97
2022-12-11T22:59:45.267Z,36.53
2022-12-11T23:02:15.164Z,29.97
2022-12-11T23:04:46.698Z,27.30
2022-12-11T23:07:16.423Z,31.10
2022-12-11T23:09:46.096Z,31.40
2022-12-11T23:12:15.546Z,28.67
2022-12-11T23:14:45.551Z,28.20
2022-12-11T23:17:15.154Z,28.57
2022-12-11T23:19:47.168Z,24.33
2022-12-11T23:22:17.386Z,39.67
2022-12-11T23:24:46.580Z,33.03
2022-12-11T23:27:17.205Z,31.07
2022-12-11T23:29:47.288Z,35.70
2022-12-11T23:32:17.686Z,31.53
2022-12-11T23:34:54.048Z,31.47
2022-12-11T23:37:23.846Z,33.43
2022-12-11T23:39:53.953Z,35.13
2022-12-11T23:42:23.723Z,31.10
2022-12-11T23:44:55.759Z,29.20
2022-12-11T23:47:25.925Z,22.63
2022-12-11T23:50:00.129Z,34.13
2022-12-11T23:52:31.374Z,35.63
2022-12-11T23:55:01.323Z,39.83
2022-12-11T23:57:30.898Z,30.30
